createdAt,value
2018-04-24T00:00:24.275Z,91.80
2018-04-24T00:02:52.542Z,91.80
2018-04-24T00:05:20.813Z,91.90
2018-04-24T00:07:49.063Z,91.80
2018-04-24T00:10:17.172Z,91.80
2018-04-24T00:12:45.416Z,91.80
2018-04-24T00:15:13.507Z,91.70
2018-04-24T00:17:41.689Z,91.70
2018-04-24T00:20:10.689Z,92.00
2018-04-24T00:22:40.065Z,91.90
2018-04-24T00:25:08.170Z,91.90
2018-04-24T00:27:37.060Z,91.90
2018-04-24T00:30:05.935Z,91.90
2018-04-24T00:32:38.804Z,91.90
2018-04-24T00:35:08.034Z,92.00
2018-04-24T00:37:36.895Z,92.00
2018-04-24T00:40:05.772Z,92.10
2018-04-24T00:42:33.864Z,92.00
2018-04-24T00:45:02.009Z,92.00
2018-04-24T00:47:30.141Z,91.80
2018-04-24T00:49:58.414Z,91.90
2018-04-24T00:52:26.517Z,92.00
2018-04-24T00:54:54.836Z,91.90
2018-04-24T00:57:22.928Z,91.90
2018-04-24T00:59:51.907Z,91.90
2018-04-24T01:02:20.022Z,91.90
2018-04-24T01:04:48.260Z,91.90
2018-04-24T01:07:16.481Z,91.90
2018-04-24T01:09:44.753Z,92.00
2018-04-24T01:12:12.949Z,91.90
2018-04-24T01:14:41.043Z,92.00
2018-04-24T01:17:09.161Z,92.10
2018-04-24T01:19:37.275Z,91.90
2018-04-24T01:22:05.374Z,92.00
2018-04-24T01:24:33.587Z,92.10
2018-04-24T01:27:01.840Z,92.20
2018-04-24T01:29:30.690Z,92.40
2018-04-24T01:31:59.291Z,92.40
2018-04-24T01:34:27.395Z,92.60
2018-04-24T01:36:55.490Z,92.80
2018-04-24T01:39:23.643Z,92.90
2018-04-24T01:41:51.867Z,92.90
2018-04-24T01:44:20.101Z,92.90
2018-04-24T01:46:48.212Z,93.10
2018-04-24T01:49:16.304Z,93.10
2018-04-24T01:51:44.416Z,93.20
2018-04-24T01:54:12.532Z,93.50
2018-04-24T01:56:40.797Z,93.40
2018-04-24T01:59:09.121Z,93.40
2018-04-24T02:01:38.171Z,93.60
2018-04-24T02:04:06.285Z,93.50
2018-04-24T02:06:35.237Z,93.70
2018-04-24T02:09:04.021Z,93.70
2018-04-24T02:11:32.144Z,93.80
2018-04-24T02:14:01.075Z,93.90
2018-04-24T02:16:29.202Z,93.90
2018-04-24T02:18:58.145Z,94.00
2018-04-24T02:21:26.358Z,94.00
2018-04-24T02:23:54.517Z,94.10
2018-04-24T02:26:22.716Z,94.10
2018-04-24T02:28:51.584Z,94.10
2018-04-24T02:31:19.851Z,94.00
2018-04-24T02:33:48.080Z,94.20
2018-04-24T02:36:16.178Z,94.20
2018-04-24T02:38:44.299Z,94.20
2018-04-24T02:41:13.148Z,94.70
2018-04-24T02:43:41.283Z,94.40
2018-04-24T02:46:09.682Z,94.40
2018-04-24T02:48:37.823Z,94.40
2018-04-24T02:51:06.757Z,94.40
2018-04-24T02:53:35.004Z,94.40
2018-04-24T02:56:03.158Z,94.50
2018-04-24T02:58:32.020Z,94.40
2018-04-24T03:01:00.120Z,94.40
2018-04-24T03:03:29.004Z,94.40
2018-04-24T03:05:57.877Z,94.40
2018-04-24T03:08:26.011Z,94.40
2018-04-24T03:10:54.113Z,94.40
2018-04-24T03:13:23.741Z,94.50
2018-04-24T03:16:06.832Z,94.50
2018-04-24T03:18:34.956Z,94.40
2018-04-24T03:21:03.840Z,94.40
2018-04-24T03:23:32.777Z,94.40
2018-04-24T03:26:01.019Z,94.40
2018-04-24T03:28:29.983Z,94.20
2018-04-24T03:30:58.093Z,94.20
2018-04-24T03:33:26.206Z,94.20
2018-04-24T03:35:55.224Z,94.00
2018-04-24T03:38:23.421Z,94.00
2018-04-24T03:40:52.272Z,94.00
2018-04-24T03:43:20.373Z,94.00
2018-04-24T03:45:49.259Z,93.80
2018-04-24T03:48:17.350Z,93.80
2018-04-24T03:50:45.481Z,93.80
2018-04-24T03:53:13.783Z,93.70
2018-04-24T03:55:42.036Z,93.50
2018-04-24T03:58:10.193Z,93.50
2018-04-24T04:00:38.437Z,93.60
2018-04-24T04:03:06.559Z,93.50
2018-04-24T04:05:35.172Z,93.60
2018-04-24T04:08:04.274Z,93.70
2018-04-24T04:10:33.149Z,93.70
2018-04-24T04:13:02.032Z,93.60
2018-04-24T04:15:30.146Z,93.60
2018-04-24T04:18:11.238Z,93.60
2018-04-24T04:20:51.227Z,93.60
2018-04-24T04:23:31.537Z,93.60
2018-04-24T04:25:59.643Z,93.50
2018-04-24T04:28:28.485Z,93.50
2018-04-24T04:30:57.333Z,93.50
2018-04-24T04:33:25.474Z,93.40
2018-04-24T04:35:53.942Z,93.40
2018-04-24T04:38:22.411Z,93.30
2018-04-24T04:40:50.584Z,93.30
2018-04-24T04:43:19.443Z,93.10
2018-04-24T04:45:49.092Z,93.30
2018-04-24T04:48:17.219Z,92.90
2018-04-24T04:50:45.405Z,92.90
2018-04-24T04:53:14.269Z,92.10
2018-04-24T04:55:42.422Z,92.10
2018-04-24T04:58:10.529Z,92.00
2018-04-24T05:00:38.644Z,91.80
2018-04-24T05:03:06.759Z,91.60
2018-04-24T05:05:35.077Z,91.50
2018-04-24T05:08:03.937Z,91.30
2018-04-24T05:10:32.060Z,91.30
2018-04-24T05:13:00.210Z,91.30
2018-04-24T05:15:29.071Z,91.10
2018-04-24T05:17:57.459Z,91.10
2018-04-24T05:20:25.565Z,91.20
2018-04-24T05:22:53.664Z,91.50
2018-04-24T05:25:21.947Z,91.20
2018-04-24T05:27:50.074Z,91.20
2018-04-24T05:30:18.329Z,91.20
2018-04-24T05:32:46.658Z,90.90
2018-04-24T05:35:14.934Z,90.90
2018-04-24T05:37:45.769Z,90.90
2018-04-24T05:40:13.908Z,90.80
2018-04-24T05:42:42.784Z,90.70
2018-04-24T05:45:10.950Z,90.70
2018-04-24T05:47:39.106Z,90.50
2018-04-24T05:50:07.211Z,90.50
2018-04-24T05:52:36.206Z,90.50
2018-04-24T05:55:05.175Z,90.20
2018-04-24T05:57:33.265Z,90.20
2018-04-24T06:00:02.271Z,89.40
2018-04-24T06:02:31.449Z,89.80
2018-04-24T06:04:59.643Z,89.80
2018-04-24T06:07:28.517Z,90.30
2018-04-24T06:09:56.635Z,90.30
2018-04-24T06:12:24.775Z,90.80
2018-04-24T06:14:53.669Z,90.80
2018-04-24T06:17:22.540Z,91.00
2018-04-24T06:19:50.645Z,91.00
2018-04-24T06:22:18.741Z,91.50
2018-04-24T06:24:46.856Z,92.20
2018-04-24T06:27:14.946Z,91.70
2018-04-24T06:29:43.804Z,91.70
2018-04-24T06:32:12.021Z,91.70
2018-04-24T06:34:40.157Z,92.00
2018-04-24T06:37:08.328Z,91.80
2018-04-24T06:39:36.445Z,92.00
2018-04-24T06:42:04.588Z,91.90
2018-04-24T06:44:32.670Z,92.10
2018-04-24T06:47:02.466Z,92.90
2018-04-24T06:49:30.569Z,92.90
2018-04-24T06:51:58.675Z,93.80
2018-04-24T06:54:26.813Z,93.50
2018-04-24T06:56:55.844Z,93.70
2018-04-24T06:59:24.000Z,93.70
2018-04-24T07:01:52.353Z,93.70
2018-04-24T07:04:20.468Z,93.40
2018-04-24T07:06:48.573Z,93.40
2018-04-24T07:09:16.771Z,93.10
2018-04-24T07:11:45.634Z,92.70
2018-04-24T07:14:13.746Z,92.70
2018-04-24T07:16:41.919Z,92.80
2018-04-24T07:19:10.743Z,92.80
2018-04-24T07:21:40.144Z,92.60
2018-04-24T07:24:09.090Z,92.50
2018-04-24T07:26:37.975Z,92.20
2018-04-24T07:29:06.076Z,92.20
2018-04-24T07:31:35.464Z,92.00
2018-04-24T07:34:03.790Z,91.70
2018-04-24T07:36:31.907Z,91.50
2018-04-24T07:39:00.833Z,91.10
2018-04-24T07:41:28.937Z,91.10
2018-04-24T07:43:58.538Z,90.90
2018-04-24T07:46:26.645Z,90.90
2018-04-24T07:48:54.814Z,90.80
2018-04-24T07:51:23.683Z,90.70
2018-04-24T07:53:51.889Z,90.70
2018-04-24T07:56:20.739Z,90.40
2018-04-24T07:58:50.033Z,90.30
2018-04-24T08:01:18.174Z,90.10
2018-04-24T08:03:46.402Z,89.20
2018-04-24T08:06:14.503Z,88.40
2018-04-24T08:08:43.459Z,87.50
2018-04-24T08:11:11.600Z,87.50
2018-04-24T08:13:39.703Z,86.60
2018-04-24T08:16:08.086Z,85.90
2018-04-24T08:18:36.251Z,85.70
2018-04-24T08:21:04.368Z,84.60
2018-04-24T08:23:33.459Z,84.30
2018-04-24T08:26:02.393Z,84.00
2018-04-24T08:28:30.571Z,83.30
2018-04-24T08:30:58.694Z,83.30
2018-04-24T08:33:27.045Z,84.10
2018-04-24T08:35:55.141Z,84.10
2018-04-24T08:38:24.026Z,85.90
2018-04-24T08:40:53.677Z,85.30
2018-04-24T08:43:21.796Z,85.30
2018-04-24T08:45:50.153Z,86.30
2018-04-24T08:48:18.255Z,85.90
2018-04-24T08:50:47.179Z,86.10
2018-04-24T08:53:16.051Z,86.30
2018-04-24T08:55:45.193Z,86.30
2018-04-24T08:58:13.297Z,86.60
2018-04-24T09:00:41.417Z,86.80
2018-04-24T09:03:09.530Z,87.50
2018-04-24T09:05:37.630Z,87.20
2018-04-24T09:08:06.514Z,88.00
2018-04-24T09:10:35.438Z,88.70
2018-04-24T09:13:03.536Z,87.90
2018-04-24T09:15:31.660Z,88.10
2018-04-24T09:18:00.590Z,88.30
2018-04-24T09:20:28.719Z,88.20
2018-04-24T09:22:57.613Z,86.60
2018-04-24T09:25:26.499Z,85.40
2018-04-24T09:27:55.397Z,84.90
2018-04-24T09:30:24.290Z,83.60
2018-04-24T09:32:53.160Z,83.70
2018-04-24T09:35:28.044Z,84.00
2018-04-24T09:37:56.973Z,84.90
2018-04-24T09:40:25.108Z,84.90
2018-04-24T09:42:53.450Z,85.50
2018-04-24T09:45:22.307Z,84.80
2018-04-24T09:47:52.163Z,84.80
2018-04-24T09:50:20.528Z,84.10
2018-04-24T09:52:49.397Z,84.40
2018-04-24T09:55:18.067Z,84.30
2018-04-24T09:57:46.261Z,84.40
2018-04-24T10:00:29.251Z,84.40
2018-04-24T10:02:57.370Z,83.80
2018-04-24T10:05:26.245Z,84.90
2018-04-24T10:07:54.456Z,84.90
2018-04-24T10:10:23.431Z,83.20
2018-04-24T10:12:51.588Z,83.20
2018-04-24T10:15:22.217Z,82.30
2018-04-24T10:17:50.328Z,81.40
2018-04-24T10:20:18.937Z,81.30
2018-04-24T10:22:47.142Z,81.50
2018-04-24T10:25:15.420Z,81.60
2018-04-24T10:27:43.701Z,81.10
2018-04-24T10:30:11.846Z,80.30
2018-04-24T10:32:40.001Z,78.50
2018-04-24T10:35:08.119Z,77.80
2018-04-24T10:37:36.706Z,78.00
2018-04-24T10:40:04.879Z,78.10
2018-04-24T10:42:33.229Z,79.00
2018-04-24T10:45:01.445Z,79.50
2018-04-24T10:47:30.345Z,81.20
2018-04-24T10:49:58.506Z,81.10
2018-04-24T10:52:27.381Z,81.20
2018-04-24T10:54:55.576Z,81.00
2018-04-24T10:57:23.771Z,80.30
2018-04-24T10:59:52.668Z,80.40
2018-04-24T11:02:20.795Z,80.40
2018-04-24T11:04:49.052Z,80.30
2018-04-24T11:07:17.289Z,80.50
2018-04-24T11:09:46.176Z,79.30
2018-04-24T11:12:15.040Z,77.30
2018-04-24T11:14:43.289Z,77.20
2018-04-24T11:17:11.434Z,76.50
2018-04-24T11:19:39.559Z,77.50
2018-04-24T11:22:07.668Z,77.60
2018-04-24T11:24:35.804Z,79.00
2018-04-24T11:27:03.913Z,78.90
2018-04-24T11:29:32.154Z,78.70
2018-04-24T11:32:01.155Z,79.90
2018-04-24T11:34:29.293Z,78.90
2018-04-24T11:36:57.617Z,78.50
2018-04-24T11:39:26.506Z,79.60
2018-04-24T11:41:54.732Z,79.50
2018-04-24T11:44:22.836Z,78.50
2018-04-24T11:46:50.972Z,77.90
2018-04-24T11:49:19.221Z,76.80
2018-04-24T11:51:47.327Z,75.80
2018-04-24T11:54:15.505Z,73.70
2018-04-24T11:56:43.625Z,74.00
2018-04-24T11:59:12.491Z,75.10
2018-04-24T12:01:40.605Z,75.10
2018-04-24T12:04:08.985Z,75.00
2018-04-24T12:06:37.224Z,73.50
2018-04-24T12:09:06.130Z,72.50
2018-04-24T12:11:35.093Z,72.50
2018-04-24T12:14:03.409Z,72.50
2018-04-24T12:16:31.530Z,71.10
2018-04-24T12:19:00.420Z,70.00
2018-04-24T12:21:28.607Z,70.00
2018-04-24T12:23:58.336Z,69.80
2018-04-24T12:26:27.283Z,69.50
2018-04-24T12:28:55.369Z,69.30
2018-04-24T12:31:23.634Z,70.40
2018-04-24T12:33:51.868Z,71.40
2018-04-24T12:36:20.715Z,71.10
2018-04-24T12:38:49.859Z,72.10
2018-04-24T12:41:17.946Z,72.00
2018-04-24T12:43:46.061Z,73.00
2018-04-24T12:46:14.497Z,73.90
2018-04-24T12:48:42.824Z,75.00
2018-04-24T12:51:10.942Z,75.10
2018-04-24T12:53:39.077Z,74.20
2018-04-24T12:56:07.210Z,72.90
2018-04-24T12:58:35.331Z,72.20
2018-04-24T13:01:04.208Z,72.50
2018-04-24T13:03:32.316Z,72.40
2018-04-24T13:06:00.416Z,71.30
2018-04-24T13:08:28.656Z,71.10
2018-04-24T13:10:56.930Z,71.60
2018-04-24T13:13:25.165Z,70.70
2018-04-24T13:15:53.287Z,69.40
2018-04-24T13:18:21.716Z,68.60
2018-04-24T13:20:49.823Z,68.00
2018-04-24T13:23:18.704Z,67.40
2018-04-24T13:25:46.816Z,67.40
2018-04-24T13:28:14.912Z,67.80
2018-04-24T13:30:43.077Z,66.30
2018-04-24T13:33:11.195Z,66.90
2018-04-24T13:35:39.413Z,66.90
2018-04-24T13:38:07.619Z,66.70
2018-04-24T13:40:36.517Z,67.30
2018-04-24T13:43:06.276Z,67.20
2018-04-24T13:45:34.478Z,67.10
2018-04-24T13:48:02.577Z,67.20
2018-04-24T13:50:32.330Z,66.00
2018-04-24T13:53:00.572Z,65.90
2018-04-24T13:55:28.743Z,64.20
2018-04-24T13:57:56.778Z,65.00
2018-04-24T14:00:24.899Z,64.80
2018-04-24T14:02:54.007Z,64.30
2018-04-24T14:05:22.158Z,64.20
2018-04-24T14:07:50.287Z,64.20
2018-04-24T14:10:18.377Z,64.60
2018-04-24T14:12:47.211Z,63.80
2018-04-24T14:15:16.223Z,64.00
2018-04-24T14:17:44.426Z,63.90
2018-04-24T14:20:12.706Z,63.00
2018-04-24T14:22:40.838Z,62.10
2018-04-24T14:25:09.796Z,62.00
2018-04-24T14:27:37.938Z,62.00
2018-04-24T14:30:06.828Z,62.00
2018-04-24T14:32:35.039Z,63.00
2018-04-24T14:35:03.145Z,62.90
2018-04-24T14:37:31.283Z,63.20
2018-04-24T14:39:59.425Z,62.60
2018-04-24T14:42:27.526Z,62.70
2018-04-24T14:44:56.139Z,63.10
2018-04-24T14:47:25.247Z,64.90
2018-04-24T14:49:54.788Z,64.90
2018-04-24T14:52:23.119Z,64.40
2018-04-24T14:54:52.146Z,63.30
2018-04-24T14:57:20.244Z,63.30
2018-04-24T14:59:48.532Z,63.00
2018-04-24T15:02:16.837Z,62.70
2018-04-24T15:04:45.700Z,63.60
2018-04-24T15:07:13.929Z,63.00
2018-04-24T15:09:42.023Z,63.20
2018-04-24T15:12:10.252Z,61.70
2018-04-24T15:14:38.525Z,61.80
2018-04-24T15:17:07.386Z,62.20
2018-04-24T15:19:35.535Z,62.00
2018-04-24T15:22:03.658Z,62.80
2018-04-24T15:24:32.655Z,63.00
2018-04-24T15:27:00.765Z,62.90
2018-04-24T15:29:28.870Z,62.50
2018-04-24T15:31:58.333Z,62.10
2018-04-24T15:34:26.556Z,62.10
2018-04-24T15:36:54.655Z,61.90
2018-04-24T15:39:22.771Z,62.10
2018-04-24T15:41:50.866Z,62.70
2018-04-24T15:44:20.080Z,63.50
2018-04-24T15:46:48.229Z,63.60
2018-04-24T15:49:16.347Z,64.40
2018-04-24T15:51:44.500Z,64.50
2018-04-24T15:54:12.670Z,64.30
2018-04-24T15:56:40.795Z,64.60
2018-04-24T15:59:08.889Z,64.10
2018-04-24T16:01:37.015Z,64.00
2018-04-24T16:04:05.660Z,64.10
2018-04-24T16:06:33.781Z,63.30
2018-04-24T16:09:02.486Z,62.20
2018-04-24T16:11:30.657Z,62.00
2018-04-24T16:13:58.843Z,59.30
2018-04-24T16:16:27.735Z,58.80
2018-04-24T16:18:56.442Z,58.80
2018-04-24T16:21:24.558Z,58.60
2018-04-24T16:23:52.910Z,59.00
2018-04-24T16:26:21.019Z,59.60
2018-04-24T16:28:49.349Z,60.30
2018-04-24T16:31:17.507Z,60.70
2018-04-24T16:33:45.643Z,61.30
2018-04-24T16:36:13.747Z,62.60
2018-04-24T16:38:42.345Z,64.60
2018-04-24T16:41:10.492Z,65.20
2018-04-24T16:43:38.606Z,65.20
2018-04-24T16:46:06.700Z,64.50
2018-04-24T16:48:34.810Z,65.30
2018-04-24T16:51:02.929Z,66.00
2018-04-24T16:53:31.840Z,67.10
2018-04-24T16:56:01.272Z,66.90
2018-04-24T16:58:29.394Z,67.70
2018-04-24T17:00:58.258Z,68.70
2018-04-24T17:03:26.540Z,68.60
2018-04-24T17:05:54.725Z,68.40
2018-04-24T17:08:22.874Z,69.60
2018-04-24T17:10:51.921Z,68.80
2018-04-24T17:13:20.036Z,68.90
2018-04-24T17:15:48.240Z,69.20
2018-04-24T17:18:17.194Z,70.40
2018-04-24T17:20:45.458Z,69.90
2018-04-24T17:23:13.798Z,70.40
2018-04-24T17:25:42.754Z,70.60
2018-04-24T17:28:10.867Z,70.40
2018-04-24T17:30:39.767Z,71.00
2018-04-24T17:33:08.718Z,71.00
2018-04-24T17:35:36.859Z,71.00
2018-04-24T17:38:05.149Z,71.40
2018-04-24T17:40:33.456Z,71.20
2018-04-24T17:43:01.599Z,71.40
2018-04-24T17:45:29.742Z,72.00
2018-04-24T17:47:57.847Z,72.40
2018-04-24T17:50:25.965Z,72.60
2018-04-24T17:52:54.833Z,73.30
2018-04-24T17:55:22.930Z,73.30
2018-04-24T17:57:51.310Z,73.70
2018-04-24T18:00:19.412Z,74.20
2018-04-24T18:02:47.543Z,74.50
2018-04-24T18:05:16.516Z,75.20
2018-04-24T18:07:46.131Z,75.90
2018-04-24T18:10:14.267Z,75.80
2018-04-24T18:12:43.230Z,76.40
2018-04-24T18:15:11.813Z,76.40
2018-04-24T18:17:40.072Z,76.70
2018-04-24T18:20:08.334Z,77.10
2018-04-24T18:22:36.471Z,77.60
2018-04-24T18:25:04.566Z,78.10
2018-04-24T18:27:32.791Z,78.90
2018-04-24T18:30:00.920Z,79.20
2018-04-24T18:32:31.844Z,80.50
2018-04-24T18:34:59.937Z,80.50
2018-04-24T18:37:28.048Z,81.10
2018-04-24T18:39:56.151Z,81.70
2018-04-24T18:42:25.088Z,82.40
2018-04-24T18:44:53.984Z,82.70
2018-04-24T18:47:22.951Z,82.90
2018-04-24T18:49:51.216Z,82.90
2018-04-24T18:52:20.130Z,83.70
2018-04-24T18:54:48.996Z,83.90
2018-04-24T18:57:17.111Z,83.80
2018-04-24T18:59:45.206Z,84.00
2018-04-24T19:02:13.378Z,84.20
2018-04-24T19:04:41.735Z,84.40
2018-04-24T19:07:10.584Z,84.50
2018-04-24T19:09:40.087Z,84.60
2018-04-24T19:12:08.370Z,84.80
2018-04-24T19:14:36.656Z,84.90
2018-04-24T19:17:04.738Z,85.20
2018-04-24T19:19:33.674Z,85.50
2018-04-24T19:22:01.793Z,85.50
2018-04-24T19:24:37.176Z,85.60
2018-04-24T19:27:05.409Z,85.80
2018-04-24T19:29:33.608Z,85.90
2018-04-24T19:32:08.317Z,86.40
2018-04-24T19:34:36.530Z,86.40
2018-04-24T19:37:04.816Z,86.30
2018-04-24T19:39:38.612Z,86.40
2018-04-24T19:42:06.892Z,86.40
2018-04-24T19:44:35.024Z,86.50
2018-04-24T19:47:03.318Z,86.50
2018-04-24T19:49:37.039Z,86.60
2018-04-24T19:52:05.156Z,86.60
2018-04-24T19:54:33.258Z,86.80
2018-04-24T19:57:02.136Z,87.10
2018-04-24T19:59:30.332Z,87.00
2018-04-24T20:01:59.216Z,87.10
2018-04-24T20:04:28.109Z,87.10
2018-04-24T20:06:57.917Z,87.10
2018-04-24T20:09:26.797Z,87.30
2018-04-24T20:11:56.399Z,87.50
2018-04-24T20:14:24.530Z,87.50
2018-04-24T20:16:52.706Z,87.20
2018-04-24T20:19:20.912Z,87.80
2018-04-24T20:21:49.105Z,87.90
2018-04-24T20:24:17.288Z,87.90
2018-04-24T20:26:46.180Z,88.00
2018-04-24T20:29:15.054Z,88.20
2018-04-24T20:31:43.164Z,88.20
2018-04-24T20:34:11.264Z,88.40
2018-04-24T20:36:39.378Z,88.40
2018-04-24T20:39:08.282Z,88.60
2018-04-24T20:41:37.145Z,88.60
2018-04-24T20:44:06.755Z,88.70
2018-04-24T20:46:34.972Z,88.60
2018-04-24T20:49:03.228Z,88.80
2018-04-24T20:51:31.506Z,89.00
2018-04-24T20:53:59.673Z,89.00
2018-04-24T20:56:28.061Z,89.10
2018-04-24T20:58:57.269Z,89.30
2018-04-24T21:01:26.118Z,89.70
2018-04-24T21:03:54.223Z,89.70
2018-04-24T21:06:23.110Z,89.90
2018-04-24T21:08:52.087Z,90.00
2018-04-24T21:11:20.180Z,89.90
2018-04-24T21:13:48.309Z,90.00
2018-04-24T21:16:16.569Z,90.00
2018-04-24T21:18:44.826Z,90.10
2018-04-24T21:21:12.960Z,90.00
2018-04-24T21:23:41.866Z,90.10
2018-04-24T21:26:10.789Z,90.10
2018-04-24T21:28:39.693Z,90.20
2018-04-24T21:31:07.816Z,90.20
2018-04-24T21:33:37.831Z,90.40
2018-04-24T21:36:06.840Z,90.30
2018-04-24T21:38:34.990Z,90.30
2018-04-24T21:41:03.129Z,90.30
2018-04-24T21:43:31.415Z,90.50
2018-04-24T21:45:59.628Z,90.50
2018-04-24T21:48:28.496Z,90.60
2018-04-24T21:50:56.656Z,90.60
2018-04-24T21:53:25.611Z,90.80
2018-04-24T21:55:53.744Z,90.80
2018-04-24T21:58:21.979Z,90.80
2018-04-24T22:00:50.253Z,90.90
2018-04-24T22:03:18.517Z,90.90
2018-04-24T22:05:46.643Z,90.90
2018-04-24T22:08:14.772Z,90.90
2018-04-24T22:10:42.882Z,91.00
2018-04-24T22:13:11.753Z,91.10
2018-04-24T22:15:39.864Z,91.10
2018-04-24T22:18:09.157Z,91.10
2018-04-24T22:20:37.311Z,91.10
2018-04-24T22:23:05.422Z,91.20
2018-04-24T22:25:34.276Z,91.20
2018-04-24T22:28:02.425Z,91.20
2018-04-24T22:30:31.364Z,91.20
2018-04-24T22:33:00.263Z,91.30
2018-04-24T22:35:29.159Z,91.30
2018-04-24T22:37:57.274Z,91.30
2018-04-24T22:40:25.396Z,91.30
2018-04-24T22:42:54.257Z,91.30
2018-04-24T22:45:22.607Z,91.30
2018-04-24T22:47:50.717Z,91.30
2018-04-24T22:50:18.958Z,91.30
2018-04-24T22:52:47.090Z,91.20
2018-04-24T22:55:15.970Z,91.30
2018-04-24T22:57:44.252Z,91.30
2018-04-24T23:00:15.388Z,91.30
2018-04-24T23:02:44.266Z,91.50
2018-04-24T23:05:13.143Z,91.90
2018-04-24T23:07:42.772Z,92.40
2018-04-24T23:10:11.170Z,92.20
2018-04-24T23:12:52.493Z,92.20
2018-04-24T23:15:32.535Z,92.40
2018-04-24T23:18:12.555Z,92.60
2018-04-24T23:20:40.317Z,92.80
2018-04-24T23:23:08.435Z,92.90
2018-04-24T23:25:36.541Z,93.10
2018-04-24T23:28:05.452Z,93.30
2018-04-24T23:30:34.384Z,93.40
2018-04-24T23:33:02.724Z,93.40
2018-04-24T23:35:30.954Z,93.50
2018-04-24T23:38:00.673Z,93.50
2018-04-24T23:40:30.289Z,93.50
2018-04-24T23:42:59.210Z,93.70
2018-04-24T23:45:27.485Z,93.50
2018-04-24T23:47:55.599Z,93.10
2018-04-24T23:50:23.770Z,92.80
2018-04-24T23:52:51.871Z,92.70
2018-04-24T23:55:20.002Z,92.60
2018-04-24T23:57:48.314Z,92.30
